Time;durP1;ratioP1;P1;durP2;ratioP2;P2;SDS_P1;SDS_P2;PMS_P1;PMS_P2;Temp;Humidity;BMP_temperature;BMP_pressure;BME280_temperature;BME280_humidity;BME280_pressure;Samples;Min_cycle;Max_cycle;Signal;HPM_P1;HPM_P2
2022/03/12 00:00:18;;;;;;;14.55;10.07;;;;;;;6.61;46.07;101262.78;1043921;28;20296;-74
2022/03/12 00:00:50;;;;;;;13.80;10.35;;;;;;;6.59;46.34;101263.97;1047494;28;20310;-74
2022/03/12 00:01:22;;;;;;;16.45;10.45;;;;;;;6.61;46.05;101256.66;1043518;28;20433;-74
2022/03/12 00:01:54;;;;;;;12.48;10.23;;;;;;;6.61;45.96;101251.38;1043569;28;20299;-74
2022/03/12 00:02:30;;;;;;;15.48;9.45;;;;;;;6.61;45.89;101261.94;1039362;28;20311;-74
2022/03/12 00:03:02;;;;;;;15.23;10.07;;;;;;;6.66;45.23;101255.09;1032347;28;20368;-74
2022/03/12 00:03:34;;;;;;;18.33;10.32;;;;;;;6.60;45.56;101255.00;1030537;28;20309;-74
2022/03/12 00:04:06;;;;;;;11.00;9.40;;;;;;;6.60;45.78;101260.31;1031313;28;20301;-74
2022/03/12 00:04:42;;;;;;;11.55;10.05;;;;;;;6.59;45.95;101258.66;1028893;28;20801;-74
2022/03/12 00:05:14;;;;;;;18.75;10.25;;;;;;;6.51;46.60;101273.59;1028306;28;20306;-74
2022/03/12 00:05:58;;;;;;;12.57;9.93;;;;;;;6.55;46.46;101273.22;1040118;28;20367;-74
2022/03/12 00:06:30;;;;;;;12.75;9.80;;;;;;;6.60;46.46;101268.25;1047726;28;20800;-74
2022/03/12 00:07:10;;;;;;;10.85;9.32;;;;;;;6.59;46.52;101263.97;1046000;28;20309;-74
2022/03/12 00:07:43;;;;;;;11.52;8.82;;;;;;;6.57;46.63;101260.63;1044076;28;20700;-74
2022/03/12 00:08:15;;;;;;;14.23;9.40;;;;;;;6.54;46.77;101261.81;1043522;28;20037;-74
2022/03/12 00:08:47;;;;;;;11.82;9.13;;;;;;;6.54;46.54;101261.81;1043598;28;20298;-74
2022/03/12 00:09:22;;;;;;;14.57;9.85;;;;;;;6.56;46.82;101262.47;1043618;28;20303;-74
2022/03/12 00:09:54;;;;;;;13.85;9.32;;;;;;;6.53;46.94;101260.19;1043272;28;20295;-75
2022/03/12 00:10:29;;;;;;;11.13;9.93;;;;;;;6.48;46.99;101263.38;1043531;28;20299;-74
2022/03/12 00:11:01;;;;;;;13.55;9.35;;;;;;;6.46;46.32;101265.38;1043594;28;20311;-74
2022/03/12 00:11:36;;;;;;;11.40;9.60;;;;;;;6.49;46.34;101259.72;1043619;28;20307;-74
2022/03/12 00:12:10;;;;;;;14.07;10.07;;;;;;;6.47;46.95;101267.00;1043639;28;20283;-74
2022/03/12 00:12:42;;;;;;;15.23;10.73;;;;;;;6.45;46.86;101265.56;1039223;28;20304;-74
2022/03/12 00:13:13;;;;;;;16.00;9.80;;;;;;;6.46;47.07;101265.38;1036463;28;20308;-75
2022/03/12 00:13:46;;;;;;;14.10;10.13;;;;;;;6.51;46.71;101263.00;1039513;28;20300;-74
2022/03/12 00:14:22;;;;;;;11.07;9.82;;;;;;;6.50;46.58;101256.06;1044037;28;20306;-74
2022/03/12 00:14:54;;;;;;;9.68;8.63;;;;;;;6.50;46.49;101261.38;1039345;28;20319;-75
2022/03/12 00:15:26;;;;;;;12.02;9.90;;;;;;;6.47;46.83;101264.38;1036448;28;20661;-74
2022/03/12 00:15:59;;;;;;;11.88;8.90;;;;;;;6.61;45.85;101262.78;1033991;28;20304;-74
2022/03/12 00:16:32;;;;;;;13.55;9.75;;;;;;;6.60;45.99;101262.94;1031031;28;20309;-74
2022/03/12 00:17:03;;;;;;;18.13;10.68;;;;;;;6.58;46.32;101262.31;1039825;28;20310;-74
2022/03/12 00:17:37;;;;;;;13.00;9.70;;;;;;;6.57;46.47;101261.47;1040252;28;20323;-74
2022/03/12 00:18:11;;;;;;;16.98;10.05;;;;;;;6.57;46.13;101272.03;1034911;28;20720;-74
2022/03/12 00:18:44;;;;;;;14.10;9.20;;;;;;;6.58;45.92;101259.66;1035312;28;20697;-74
2022/03/12 00:19:16;;;;;;;12.95;9.82;;;;;;;6.61;45.62;101261.94;1031101;28;20828;-74
2022/03/12 00:19:47;;;;;;;13.05;10.00;;;;;;;6.61;45.52;101256.66;1033478;28;21059;-74
2022/03/12 00:20:22;;;;;;;11.10;10.00;;;;;;;6.60;46.17;101255.00;1035451;28;20962;-75
2022/03/12 00:20:53;;;;;;;14.65;8.85;;;;;;;6.65;45.82;101258.75;1036955;28;20304;-74
2022/03/12 00:21:27;;;;;;;12.95;9.35;;;;;;;6.66;44.99;101255.09;1039134;28;20300;-74
2022/03/12 00:21:59;;;;;;;11.43;9.35;;;;;;;6.67;45.68;101261.22;1032283;28;20305;-74
2022/03/12 00:22:32;;;;;;;12.48;9.18;;;;;;;6.70;46.10;101264.34;1031212;28;20360;-74
2022/03/12 00:23:13;;;;;;;12.32;9.80;;;;;;;6.66;45.93;101259.59;1026452;28;20309;-74
2022/03/12 00:23:49;;;;;;;12.98;9.85;;;;;;;6.69;45.54;101260.03;1032082;28;20790;-74
2022/03/12 00:24:22;;;;;;;18.20;9.88;;;;;;;6.69;45.21;101253.91;1031858;28;20553;-74
2022/03/12 00:24:55;;;;;;;14.77;10.52;;;;;;;6.75;45.28;101258.50;1034542;28;20305;-74
2022/03/12 00:25:28;;;;;;;11.30;9.13;;;;;;;6.83;44.27;101261.03;1031660;28;20392;-74
2022/03/12 00:26:00;;;;;;;12.18;9.75;;;;;;;6.78;44.22;101252.84;1033902;28;20301;-74
2022/03/12 00:26:33;;;;;;;11.10;9.88;;;;;;;6.73;44.95;101255.19;1037150;28;20300;-74
2022/03/12 00:27:06;;;;;;;12.90;10.02;;;;;;;6.69;45.78;101270.63;1036151;28;20338;-75
2022/03/12 00:27:43;;;;;;;14.60;9.98;;;;;;;6.70;45.42;101256.38;1039876;28;20319;-74
2022/03/12 00:28:17;;;;;;;10.85;9.35;;;;;;;6.69;45.18;101260.03;1040900;28;20304;-74
2022/03/12 00:28:53;;;;;;;13.13;9.65;;;;;;;6.70;45.35;101260.88;1042251;28;20304;-74
2022/03/12 00:29:25;;;;;;;13.52;11.05;;;;;;;6.69;45.12;101259.22;1039978;28;20300;-74
2022/03/12 00:29:57;;;;;;;11.40;9.23;;;;;;;6.71;45.17;101259.84;1040135;28;20374;-74
2022/03/12 00:30:29;;;;;;;14.70;10.02;;;;;;;6.70;45.26;101261.69;1040510;28;20307;-74
2022/03/12 00:31:01;;;;;;;11.68;8.90;;;;;;;6.71;45.27;101267.81;1039849;28;20913;-74
2022/03/12 00:31:33;;;;;;;11.93;9.60;;;;;;;6.67;44.92;101255.94;1040169;28;20310;-74
2022/03/12 00:32:06;;;;;;;10.57;8.90;;;;;;;6.71;45.79;101265.16;1040754;28;20292;-74
2022/03/12 00:32:38;;;;;;;12.73;8.52;;;;;;;6.77;44.86;101261.78;1039953;28;20783;-74
2022/03/12 00:33:09;;;;;;;17.10;9.23;;;;;;;6.75;44.98;101263.78;1040814;28;20672;-74
2022/03/12 00:33:41;;;;;;;10.93;9.23;;;;;;;6.71;45.10;101267.81;1044091;28;20283;-74
2022/03/12 00:34:14;;;;;;;14.35;9.00;;;;;;;6.72;45.15;101264.16;1044242;28;20303;-74
2022/03/12 00:34:45;;;;;;;20.50;9.23;;;;;;;6.73;45.29;101261.31;1043985;28;20311;-74
2022/03/12 00:35:17;;;;;;;12.40;8.50;;;;;;;6.70;45.34;101266.16;1044274;28;20299;-74
2022/03/12 00:35:53;;;;;;;12.93;8.13;;;;;;;6.71;45.26;101262.50;1035314;28;20304;-74
2022/03/12 00:36:25;;;;;;;13.73;9.27;;;;;;;6.81;44.64;101260.41;1036768;28;20359;-74
2022/03/12 00:36:56;;;;;;;11.77;9.73;;;;;;;6.84;44.33;101260.03;1035865;28;20308;-74
2022/03/12 00:37:28;;;;;;;11.18;9.55;;;;;;;6.77;44.26;101273.19;1038222;28;20315;-74
2022/03/12 00:37:59;;;;;;;12.55;10.10;;;;;;;6.78;44.60;101264.25;1035704;28;20375;-74
2022/03/12 00:38:31;;;;;;;11.23;9.25;;;;;;;6.76;44.34;101266.25;1036489;28;20827;-74
2022/03/12 00:39:04;;;;;;;14.15;9.18;;;;;;;6.75;45.46;101269.09;1039958;28;20296;-74
2022/03/12 00:39:36;;;;;;;17.58;9.40;;;;;;;6.71;45.61;101267.81;1038425;28;20296;-74
2022/03/12 00:40:08;;;;;;;11.13;9.02;;;;;;;6.72;45.93;101264.16;1044455;28;20642;-74
2022/03/12 00:40:40;;;;;;;11.18;9.30;;;;;;;6.76;45.43;101268.06;1044287;28;20303;-75
2022/03/12 00:41:12;;;;;;;12.13;8.13;;;;;;;6.74;45.62;101262.13;1044670;28;20295;-74
2022/03/12 00:41:44;;;;;;;13.02;9.30;;;;;;;6.77;44.69;101262.59;1044288;28;20295;-74
2022/03/12 00:42:15;;;;;;;11.82;9.18;;;;;;;6.80;44.75;101261.41;1044231;28;20449;-74
2022/03/12 00:42:47;;;;;;;11.18;9.05;;;;;;;6.77;45.41;101267.88;1044298;28;20291;-73
2022/03/12 00:43:19;;;;;;;10.65;8.45;;;;;;;6.76;45.22;101265.44;1040101;28;20327;-74
2022/03/12 00:43:52;;;;;;;11.77;9.32;;;;;;;6.78;45.34;101260.78;1035831;28;20304;-74
2022/03/12 00:44:24;;;;;;;10.85;9.73;;;;;;;6.87;45.20;101267.66;1036797;28;20672;-74
2022/03/12 00:44:56;;;;;;;15.65;9.55;;;;;;;6.91;44.66;101266.28;1040970;28;20288;-74
2022/03/12 00:45:29;;;;;;;12.10;8.93;;;;;;;6.91;44.31;101255.69;1040934;28;20297;-73
2022/03/12 00:46:01;;;;;;;12.38;9.13;;;;;;;6.88;44.32;101258.69;1040005;28;20782;-74
2022/03/12 00:46:33;;;;;;;16.10;9.32;;;;;;;6.90;43.52;101263.81;1039927;28;20355;-73
2022/03/12 00:47:05;;;;;;;10.82;8.60;;;;;;;6.93;44.16;101266.09;1040738;28;20391;-76
2022/03/12 00:47:37;;;;;;;16.27;9.15;;;;;;;6.94;44.20;101262.44;1044047;28;20295;-80
2022/03/12 00:48:09;;;;;;;14.93;9.40;;;;;;;6.92;44.23;101267.09;1044310;28;20803;-81
2022/03/12 00:49:01;;;;;;;17.27;9.57;;;;;;;6.89;44.99;101264.81;1041982;28;20354;-79
2022/03/12 00:49:32;;;;;;;11.35;7.82;;;;;;;6.90;44.30;101262.00;1043980;28;20329;-80
2022/03/12 00:50:05;;;;;;;18.63;8.93;;;;;;;6.95;44.06;101259.63;1043351;28;20663;-80
2022/03/12 00:50:37;;;;;;;11.88;9.23;;;;;;;6.97;44.50;101257.59;1043615;28;20302;-80
2022/03/12 00:51:09;;;;;;;9.43;8.52;;;;;;;6.96;44.33;101261.25;1040054;28;20296;-80
2022/03/12 00:51:44;;;;;;;11.13;8.75;;;;;;;6.96;43.82;101263.09;1044705;28;20314;-79
2022/03/12 00:52:16;;;;;;;11.73;9.05;;;;;;;6.97;44.03;101254.94;1048240;28;20773;-81
2022/03/12 00:52:48;;;;;;;11.52;10.07;;;;;;;6.98;44.12;101264.53;1045142;28;20370;-80
2022/03/12 00:53:19;;;;;;;12.30;9.18;;;;;;;6.96;43.50;101261.25;1047028;28;20737;-80
2022/03/12 00:53:51;;;;;;;16.08;9.45;;;;;;;6.99;44.63;101265.38;1044137;28;20310;-80
2022/03/12 00:54:23;;;;;;;15.23;8.82;;;;;;;7.02;44.21;101268.47;1044150;28;20302;-80
2022/03/12 00:54:54;;;;;;;13.10;8.55;;;;;;;7.05;43.60;101257.50;1044399;28;20305;-80
2022/03/12 00:55:26;;;;;;;9.93;8.20;;;;;;;7.11;43.12;101256.75;1044060;28;20330;-80
2022/03/12 00:55:58;;;;;;;12.05;8.90;;;;;;;7.11;42.97;101251.47;1039775;28;20307;-80
2022/03/12 00:56:32;;;;;;;14.68;8.88;;;;;;;7.15;43.09;101259.06;1040055;28;20378;-80
2022/03/12 00:57:03;;;;;;;10.40;8.70;;;;;;;7.08;43.39;101259.78;1036586;28;20668;-81
2022/03/12 00:57:35;;;;;;;14.00;9.20;;;;;;;7.10;43.36;101256.94;1040668;28;20869;-80
2022/03/12 00:58:09;;;;;;;11.30;8.60;;;;;;;7.15;42.59;101254.59;1044143;28;20288;-80
2022/03/12 00:58:45;;;;;;;12.18;8.43;;;;;;;7.19;42.58;101250.56;1044373;28;20303;-80
2022/03/12 00:59:17;;;;;;;11.65;9.27;;;;;;;7.22;42.70;101250.19;1044282;28;20792;-80
2022/03/12 00:59:48;;;;;;;11.35;9.10;;;;;;;7.21;42.28;101253.03;1043968;28;20304;-79
2022/03/12 01:00:24;;;;;;;15.02;9.38;;;;;;;7.15;43.18;101262.53;1039572;28;20816;-81
2022/03/12 01:00:56;;;;;;;9.68;8.45;;;;;;;7.17;43.14;101263.19;1039666;28;20791;-81
2022/03/12 01:01:28;;;;;;;17.25;9.70;;;;;;;7.15;43.32;101259.06;1041232;28;20668;-80
2022/03/12 01:02:00;;;;;;;9.85;8.52;;;;;;;7.23;42.75;101256.31;1043985;28;20299;-80
2022/03/12 01:02:32;;;;;;;10.48;8.98;;;;;;;7.20;43.15;101264.63;1043999;28;20428;-81
2022/03/12 01:03:04;;;;;;;14.00;8.65;;;;;;;7.23;43.26;101261.63;1044249;28;20304;-80
2022/03/12 01:03:36;;;;;;;18.27;9.07;;;;;;;7.22;42.86;101262.63;1043856;28;20306;-80
2022/03/12 01:04:07;;;;;;;11.55;9.15;;;;;;;7.23;43.53;101261.63;1040497;28;20292;-81
2022/03/12 01:04:40;;;;;;;9.48;7.75;;;;;;;7.29;42.59;101253.75;1044033;28;20291;-80
2022/03/12 01:05:15;;;;;;;12.80;8.73;;;;;;;7.28;42.83;101257.41;1045703;28;20299;-74
2022/03/12 01:05:49;;;;;;;10.70;8.15;;;;;;;7.28;42.75;101254.75;1045283;28;20295;-74
2022/03/12 01:06:22;;;;;;;12.05;9.43;;;;;;;7.27;43.14;101260.25;1047990;28;20826;-74
2022/03/12 01:06:53;;;;;;;12.65;8.50;;;;;;;7.26;42.97;101266.53;1046533;28;20673;-74
2022/03/12 01:07:25;;;;;;;14.38;9.38;;;;;;;7.22;43.38;101258.16;1044105;28;20295;-74
2022/03/12 01:07:57;;;;;;;10.25;9.25;;;;;;;7.26;43.23;101255.94;1043990;28;20299;-74
2022/03/12 01:08:47;;;;;;;13.25;8.63;;;;;;;7.24;43.72;101260.63;1043853;28;20330;-74
2022/03/12 01:09:19;;;;;;;12.13;8.57;;;;;;;7.26;43.12;101254.13;1043512;28;20431;-73
2022/03/12 01:09:50;;;;;;;9.80;8.77;;;;;;;7.31;42.79;101249.09;1044338;28;20304;-73
2022/03/12 01:10:22;;;;;;;11.05;7.97;;;;;;;7.36;42.53;101256.47;1043802;28;20307;-74
2022/03/12 01:10:57;;;;;;;16.50;8.48;;;;;;;7.30;42.71;101260.69;1043987;28;20314;-74
2022/03/12 01:11:28;;;;;;;10.00;8.98;;;;;;;7.29;43.22;101261.69;1044023;28;20382;-73
2022/03/12 01:12:00;;;;;;;12.60;8.85;;;;;;;7.30;42.66;101251.91;1040743;28;20299;-73
2022/03/12 01:12:32;;;;;;;13.25;9.15;;;;;;;7.40;42.09;101250.66;1039605;28;20308;-74
2022/03/12 01:13:03;;;;;;;13.93;8.98;;;;;;;7.39;42.57;101251.63;1040127;28;20296;-74
2022/03/12 01:13:35;;;;;;;12.13;10.32;;;;;;;7.33;42.50;101260.31;1040299;28;20355;-74
2022/03/12 01:14:06;;;;;;;9.65;8.10;;;;;;;7.35;42.26;101254.84;1043968;28;20312;-74
2022/03/12 01:14:39;;;;;;;12.60;9.15;;;;;;;7.35;42.60;101254.84;1044530;28;20299;-74
2022/03/12 01:15:11;;;;;;;17.77;8.38;;;;;;;7.40;42.57;101263.06;1044443;28;20294;-74
2022/03/12 01:15:42;;;;;;;15.75;9.10;;;;;;;7.35;42.75;101257.47;1039685;28;20411;-74
2022/03/12 01:16:14;;;;;;;11.85;9.45;;;;;;;7.38;42.15;101257.94;1039778;28;20288;-74
2022/03/12 01:16:46;;;;;;;12.93;9.13;;;;;;;7.38;42.66;101257.94;1039870;28;20296;-74
2022/03/12 01:17:18;;;;;;;11.65;8.60;;;;;;;7.35;43.16;101260.13;1040504;28;20299;-74
2022/03/12 01:17:50;;;;;;;12.52;8.43;;;;;;;7.37;42.48;101258.94;1043922;28;20321;-80
2022/03/12 01:18:23;;;;;;;17.98;8.60;;;;;;;7.34;42.94;101258.50;1039953;28;20297;-80
2022/03/12 01:18:55;;;;;;;11.15;8.68;;;;;;;7.36;42.56;101256.47;1035406;28;20292;-80
2022/03/12 01:19:28;;;;;;;9.30;7.90;;;;;;;7.38;42.29;101254.47;1032439;28;20320;-80
2022/03/12 01:20:02;;;;;;;13.48;9.32;;;;;;;7.33;42.94;101256.84;1032671;28;20297;-80
2022/03/12 01:20:34;;;;;;;16.38;8.48;;;;;;;7.33;42.57;101257.66;1037023;28;20296;-80
2022/03/12 01:21:08;;;;;;;16.42;8.93;;;;;;;7.33;43.48;101262.16;1040520;28;20307;-80
2022/03/12 01:21:42;;;;;;;11.23;7.63;;;;;;;7.30;43.60;101259.88;1041167;28;20925;-80
2022/03/12 01:22:15;;;;;;;12.13;9.02;;;;;;;7.29;43.49;101260.88;1043785;28;20303;-80
2022/03/12 01:22:46;;;;;;;12.40;9.50;;;;;;;7.30;43.02;101259.88;1040041;28;20296;-81
2022/03/12 01:23:23;;;;;;;10.30;9.18;;;;;;;7.24;43.86;101261.44;1041101;28;20822;-81
2022/03/12 01:23:55;;;;;;;18.52;9.35;;;;;;;7.30;43.74;101265.16;1041679;28;20354;-80
2022/03/12 01:24:28;;;;;;;21.20;9.60;;;;;;;7.24;43.98;101264.09;1043897;28;20302;-80
2022/03/12 01:24:59;;;;;;;11.50;9.18;;;;;;;7.17;43.99;101265.00;1044067;28;20314;-80
2022/03/12 01:25:31;;;;;;;12.07;9.32;;;;;;;7.24;43.41;101260.63;1044445;28;20291;-80
2022/03/12 01:26:05;;;;;;;13.00;8.48;;;;;;;7.23;42.90;101257.13;1044440;28;20628;-80
2022/03/12 01:26:39;;;;;;;19.80;8.65;;;;;;;7.23;42.81;101262.44;1044036;28;20307;-80
2022/03/12 01:27:10;;;;;;;11.15;9.05;;;;;;;7.23;43.18;101269.56;1044241;28;20314;-81
2022/03/12 01:27:42;;;;;;;13.82;8.90;;;;;;;7.15;43.85;101264.38;1044359;28;20295;-80
2022/03/12 01:28:15;;;;;;;11.35;8.70;;;;;;;7.19;43.69;101266.47;1044269;28;20303;-80
2022/03/12 01:28:47;;;;;;;9.70;8.48;;;;;;;7.20;43.54;101262.00;1043893;28;20318;-81
2022/03/12 01:29:19;;;;;;;11.80;8.75;;;;;;;7.15;43.90;101270.50;1039068;28;20307;-79
2022/03/12 01:29:50;;;;;;;11.27;8.00;;;;;;;7.19;43.78;101260.34;1035845;28;20292;-81
2022/03/12 01:30:29;;;;;;;16.75;9.70;;;;;;;7.18;43.48;101264.00;1036303;28;20780;-81
2022/03/12 01:31:01;;;;;;;11.13;7.75;;;;;;;7.19;43.77;101265.66;1037128;28;20794;-81
2022/03/12 01:31:36;;;;;;;10.50;8.98;;;;;;;7.22;43.72;101265.28;1041092;28;20531;-80
2022/03/12 01:32:11;;;;;;;10.80;8.52;;;;;;;7.25;43.12;101264.91;1039863;28;20379;-80
2022/03/12 01:32:42;;;;;;;9.52;7.75;;;;;;;7.21;43.61;101268.94;1035158;28;20308;-80
2022/03/12 01:33:14;;;;;;;13.10;8.70;;;;;;;7.27;43.58;101258.41;1039651;28;20322;-80
2022/03/12 01:33:46;;;;;;;17.00;8.85;;;;;;;7.25;42.89;101256.97;1040737;28;20422;-74
2022/03/12 01:34:18;;;;;;;14.60;8.85;;;;;;;7.23;43.45;101256.31;1040196;28;20296;-74
2022/03/12 01:34:52;;;;;;;17.40;9.02;;;;;;;7.24;43.30;101263.25;1043440;28;20461;-74
2022/03/12 01:35:24;;;;;;;11.85;8.60;;;;;;;7.20;43.64;101257.50;1043837;28;20314;-75
2022/03/12 01:35:56;;;;;;;15.18;8.88;;;;;;;7.20;43.81;101264.63;1040706;28;20300;-74
2022/03/12 01:36:28;;;;;;;13.18;9.23;;;;;;;7.17;43.86;101267.66;1043859;28;20317;-74
2022/03/12 01:37:00;;;;;;;11.70;7.85;;;;;;;7.16;43.47;101263.38;1043642;28;20306;-74
2022/03/12 01:37:32;;;;;;;12.00;9.23;;;;;;;7.20;43.59;101260.16;1043857;28;20326;-74
2022/03/12 01:38:06;;;;;;;12.77;9.73;;;;;;;7.25;43.36;101262.25;1044118;28;20296;-74
2022/03/12 01:38:49;;;;;;;10.95;8.18;;;;;;;7.25;42.78;101254.31;1039798;28;20303;-75
2022/03/12 01:39:20;;;;;;;11.52;9.32;;;;;;;7.29;43.08;101258.22;1039655;28;21511;-74
2022/03/12 01:39:52;;;;;;;15.65;8.95;;;;;;;7.33;42.77;101257.66;1038180;28;20697;-73
2022/03/12 01:40:23;;;;;;;13.57;8.75;;;;;;;7.36;42.44;101261.78;1041573;28;20826;-74
2022/03/12 01:40:55;;;;;;;9.27;7.93;;;;;;;7.41;42.51;101257.59;1043838;28;20805;-74
2022/03/12 01:41:32;;;;;;;11.20;8.93;;;;;;;7.46;42.14;101262.31;1040444;28;20347;-74
2022/03/12 01:42:07;;;;;;;12.20;8.57;;;;;;;7.44;42.80;101264.34;1043401;28;20689;-74
2022/03/12 01:42:39;;;;;;;11.48;8.90;;;;;;;7.41;42.13;101262.88;1039668;28;20311;-74
2022/03/12 01:43:14;;;;;;;8.98;8.07;;;;;;;7.47;42.28;101263.16;1041983;28;20372;-74
2022/03/12 01:43:47;;;;;;;14.13;8.43;;;;;;;7.40;42.59;101263.06;1039753;28;20362;-75
2022/03/12 01:44:20;;;;;;;13.65;8.77;;;;;;;7.43;42.23;101257.41;1037233;28;20293;-74
2022/03/12 01:44:52;;;;;;;13.60;9.25;;;;;;;7.46;42.11;101267.63;1035624;28;21150;-74
2022/03/12 01:45:28;;;;;;;11.98;9.63;;;;;;;7.49;41.68;101263.78;1036551;28;20307;-74
2022/03/12 01:46:01;;;;;;;10.50;8.80;;;;;;;7.53;41.55;101257.09;1037040;28;20311;-74
2022/03/12 01:46:39;;;;;;;14.57;8.25;;;;;;;7.52;41.66;101264.22;1036972;28;20308;-74
2022/03/12 01:47:11;;;;;;;9.48;8.38;;;;;;;7.52;42.13;101255.47;1039695;28;20311;-74
2022/03/12 01:47:43;;;;;;;12.18;8.35;;;;;;;7.54;41.92;101258.75;1037712;28;20296;-74
2022/03/12 01:48:14;;;;;;;14.48;10.25;;;;;;;7.48;42.43;101265.63;1041118;28;20311;-74
2022/03/12 01:48:49;;;;;;;12.73;9.23;;;;;;;7.52;42.29;101261.59;1043705;28;20394;-81
2022/03/12 01:49:23;;;;;;;15.48;9.43;;;;;;;7.50;42.30;101260.94;1043778;28;20314;-81
2022/03/12 01:49:55;;;;;;;11.27;9.15;;;;;;;7.52;42.23;101264.22;1044172;28;20389;-81
2022/03/12 01:50:32;;;;;;;11.82;9.15;;;;;;;7.47;42.04;101253.38;1041955;28;20846;-81
2022/03/12 01:51:03;;;;;;;10.93;8.82;;;;;;;7.49;42.32;101256.66;1044272;28;20299;-81
2022/03/12 01:51:40;;;;;;;13.40;9.27;;;;;;;7.53;41.75;101268.53;1043937;28;20303;-81
2022/03/12 01:52:12;;;;;;;9.68;8.15;;;;;;;7.47;42.19;101263.16;1044195;28;20326;-81
2022/03/12 01:52:43;;;;;;;12.15;9.30;;;;;;;7.44;42.21;101274.94;1044023;28;20299;-81
2022/03/12 01:53:15;;;;;;;14.07;9.48;;;;;;;7.44;42.41;101261.69;1043676;28;20305;-81
2022/03/12 01:53:46;;;;;;;11.60;8.75;;;;;;;7.48;42.01;101267.44;1044222;28;20307;-81
2022/03/12 01:54:27;;;;;;;15.27;9.40;;;;;;;7.47;41.81;101261.31;1043948;28;20296;-81
2022/03/12 01:54:59;;;;;;;9.38;8.38;;;;;;;7.48;42.10;101268.25;1043775;28;20302;-81
2022/03/12 01:55:31;;;;;;;13.52;8.63;;;;;;;7.43;42.59;101268.00;1039612;28;20331;-81
2022/03/12 01:56:03;;;;;;;12.45;9.52;;;;;;;7.41;42.24;101267.38;1039747;28;20300;-81
2022/03/12 01:56:35;;;;;;;13.98;9.32;;;;;;;7.37;42.73;101258.94;1036302;28;20297;-81
2022/03/12 01:57:09;;;;;;;10.90;9.20;;;;;;;7.51;41.85;101265.25;1036049;28;20807;-81
2022/03/12 01:57:40;;;;;;;17.10;9.57;;;;;;;7.53;41.79;101267.69;1035839;28;20300;-81
2022/03/12 01:58:12;;;;;;;14.88;8.60;;;;;;;7.61;41.08;101270.25;1036040;28;20391;-80
2022/03/12 01:58:46;;;;;;;9.93;8.93;;;;;;;7.55;41.60;101261.22;1040610;28;20304;-81
2022/03/12 01:59:18;;;;;;;12.82;9.45;;;;;;;7.58;42.18;101265.31;1032431;28;20309;-80
2022/03/12 01:59:51;;;;;;;17.60;9.85;;;;;;;7.52;42.84;101266.06;1035701;28;20300;-81
2022/03/12 02:00:25;;;;;;;11.07;8.55;;;;;;;7.53;42.13;101263.22;1035686;28;20304;-81
2022/03/12 02:00:58;;;;;;;14.43;9.02;;;;;;;7.52;42.23;101261.59;1033645;28;20351;-81
2022/03/12 02:01:34;;;;;;;24.42;10.93;;;;;;;7.54;42.19;101264.03;1035418;28;20300;-81
2022/03/12 02:02:12;;;;;;;15.85;9.70;;;;;;;7.49;42.85;101267.25;1033408;28;20300;-81
2022/03/12 02:02:44;;;;;;;13.07;9.45;;;;;;;7.48;42.48;101270.91;1037872;28;20320;-81
2022/03/12 02:03:26;;;;;;;9.82;8.80;;;;;;;7.53;42.14;101263.22;1042030;28;20341;-81
2022/03/12 02:04:00;;;;;;;11.23;9.02;;;;;;;7.51;42.23;101270.53;1038371;28;20707;-81
2022/03/12 02:04:32;;;;;;;12.25;9.07;;;;;;;7.47;42.33;101263.16;1031687;28;20301;-81
2022/03/12 02:05:05;;;;;;;10.07;8.23;;;;;;;7.49;42.78;101269.91;1027262;28;20861;-80
2022/03/12 02:05:37;;;;;;;14.80;10.23;;;;;;;7.43;42.62;101265.34;1030348;28;20306;-81
2022/03/12 02:06:10;;;;;;;16.25;9.40;;;;;;;7.43;42.19;101268.81;1033317;28;20297;-80
2022/03/12 02:06:43;;;;;;;12.60;9.07;;;;;;;7.46;41.87;101264.97;1040631;28;20709;-81
2022/03/12 02:07:16;;;;;;;14.02;8.63;;;;;;;7.44;42.51;101267.00;1039635;28;20302;-81
2022/03/12 02:07:48;;;;;;;11.10;9.07;;;;;;;7.46;42.43;101264.16;1036468;28;20359;-81
2022/03/12 02:08:20;;;;;;;13.43;9.15;;;;;;;7.42;42.34;101266.34;1039773;28;20858;-81
2022/03/12 02:08:55;;;;;;;17.10;9.40;;;;;;;7.51;42.43;101269.72;1040837;28;20346;-81
2022/03/12 02:09:27;;;;;;;12.52;8.85;;;;;;;7.43;43.02;101268.00;1039702;28;20299;-81
2022/03/12 02:10:00;;;;;;;11.02;9.25;;;;;;;7.45;42.55;101266.00;1039577;28;20303;-80
2022/03/12 02:10:36;;;;;;;14.60;9.50;;;;;;;7.34;42.90;101259.31;1039493;28;20306;-80
2022/03/12 02:11:08;;;;;;;14.13;8.98;;;;;;;7.32;43.31;101271.09;1035720;28;20683;-81
2022/03/12 02:11:41;;;;;;;13.85;9.30;;;;;;;7.35;42.61;101265.44;1036960;28;20296;-80
2022/03/12 02:12:12;;;;;;;14.05;9.57;;;;;;;7.40;42.53;101257.78;1036736;28;20308;-81
2022/03/12 02:12:44;;;;;;;10.88;8.98;;;;;;;7.48;41.95;101262.97;1040482;28;20326;-81
2022/03/12 02:13:17;;;;;;;16.17;9.63;;;;;;;7.38;42.30;101265.88;1043541;28;20315;-80
2022/03/12 02:13:49;;;;;;;12.30;9.02;;;;;;;7.34;43.17;101263.78;1041450;28;20300;-81
2022/03/12 02:14:23;;;;;;;9.70;8.68;;;;;;;7.29;43.15;101268.81;1043877;28;20292;-81
2022/03/12 02:15:02;;;;;;;15.27;8.27;;;;;;;7.28;43.16;101265.34;1043546;28;20333;-81
2022/03/12 02:15:34;;;;;;;15.35;9.57;;;;;;;7.27;42.83;101260.25;1043637;28;20311;-81
2022/03/12 02:16:07;;;;;;;12.05;9.30;;;;;;;7.26;43.14;101266.53;1044074;28;20683;-81
2022/03/12 02:16:45;;;;;;;11.80;9.25;;;;;;;7.34;43.43;101258.50;1043976;28;20293;-81
2022/03/12 02:17:16;;;;;;;14.82;9.60;;;;;;;7.25;43.55;101262.25;1039645;28;20303;-81
2022/03/12 02:17:51;;;;;;;10.38;9.27;;;;;;;7.23;43.37;101261.63;1039449;28;20801;-81
2022/03/12 02:18:22;;;;;;;15.35;8.98;;;;;;;7.15;44.04;101264.38;1035586;28;20301;-81
2022/03/12 02:18:54;;;;;;;13.20;8.70;;;;;;;7.19;43.73;101260.34;1036304;28;20281;-81
2022/03/12 02:19:28;;;;;;;14.20;8.85;;;;;;;7.22;43.67;101263.44;1033139;28;20293;-81
2022/03/12 02:19:59;;;;;;;10.25;9.23;;;;;;;7.23;43.97;101258.97;1037428;28;20348;-81
2022/03/12 02:20:31;;;;;;;10.90;9.73;;;;;;;7.13;44.40;101270.69;1039432;28;20308;-81
2022/03/12 02:21:03;;;;;;;13.90;9.30;;;;;;;7.16;44.79;101266.00;1031557;28;20314;-81
2022/03/12 02:21:42;;;;;;;11.50;9.73;;;;;;;7.16;43.89;101269.47;1023700;28;20391;-81
2022/03/12 02:22:15;;;;;;;19.23;10.10;;;;;;;7.09;44.69;101266.72;1024773;28;20422;-81
2022/03/12 02:22:52;;;;;;;12.60;10.00;;;;;;;7.15;44.25;101264.38;1030519;28;20306;-81
2022/03/12 02:23:24;;;;;;;12.25;9.35;;;;;;;7.20;44.02;101264.63;1035433;28;20313;-81
2022/03/12 02:23:56;;;;;;;11.23;8.88;;;;;;;7.10;44.63;101273.66;1041099;28;20303;-81
2022/03/12 02:24:30;;;;;;;12.68;8.82;;;;;;;7.01;45.33;101273.94;1037036;28;20301;-81
2022/03/12 02:25:02;;;;;;;10.85;9.27;;;;;;;6.98;45.75;101275.13;1035463;28;20672;-81
2022/03/12 02:25:34;;;;;;;13.52;9.35;;;;;;;6.93;45.76;101272.22;1036345;28;20304;-81
2022/03/12 02:26:06;;;;;;;21.17;9.75;;;;;;;6.92;46.20;101281.16;1040701;28;20299;-81
2022/03/12 02:26:41;;;;;;;12.13;9.43;;;;;;;6.84;46.37;101294.47;1043827;28;20302;-81
2022/03/12 02:27:13;;;;;;;11.75;9.30;;;;;;;6.85;45.33;101282.91;1039239;28;20326;-81
2022/03/12 02:27:45;;;;;;;13.20;9.80;;;;;;;6.94;44.73;101281.81;1040715;28;20300;-81
2022/03/12 02:28:19;;;;;;;15.60;9.70;;;;;;;6.96;45.25;101279.78;1043760;28;20287;-81
2022/03/12 02:28:50;;;;;;;14.80;9.70;;;;;;;6.92;45.71;101289.09;1040938;28;20350;-81
2022/03/12 02:29:23;;;;;;;13.23;9.98;;;;;;;6.83;45.99;101288.34;1043590;28;20389;-81
2022/03/12 02:29:59;;;;;;;13.75;9.40;;;;;;;6.88;45.90;101285.19;1043859;28;20303;-81
2022/03/12 02:30:37;;;;;;;16.08;9.85;;;;;;;6.97;45.14;101281.44;1040644;28;20303;-81
2022/03/12 02:31:08;;;;;;;12.63;9.07;;;;;;;7.04;44.12;101285.00;1039582;28;20447;-80
2022/03/12 02:31:43;;;;;;;11.88;9.13;;;;;;;6.98;45.31;101285.72;1039523;28;20300;-81
2022/03/12 02:32:16;;;;;;;15.15;9.90;;;;;;;6.93;45.12;101280.16;1041947;28;20318;-81
2022/03/12 02:32:50;;;;;;;12.38;8.60;;;;;;;6.98;44.96;101287.56;1041332;28;20351;-80
2022/03/12 02:33:28;;;;;;;13.10;9.18;;;;;;;7.00;45.19;101283.72;1043747;28;20798;-81
2022/03/12 02:34:01;;;;;;;12.98;9.25;;;;;;;7.02;45.12;101289.66;1043781;28;20303;-81